Time;durP1;ratioP1;P1;durP2;ratioP2;P2;SDS_P1;SDS_P2;PMS_P1;PMS_P2;Temp;Humidity;BMP_temperature;BMP_pressure;BME280_temperature;BME280_humidity;BME280_pressure;Samples;Min_cycle;Max_cycle;Signal;HPM_P1;HPM_P2
2022/07/17 00:01:48;;;;;;;10.77;9.97;;;14.30;99.90;;;;;;5038032;28;20463;-68
2022/07/17 00:04:16;;;;;;;14.23;10.07;;;14.20;99.90;;;;;;5041679;28;20529;-68
2022/07/17 00:06:44;;;;;;;10.73;9.70;;;14.10;99.90;;;;;;5038983;28;20503;-68
2022/07/17 00:09:11;;;;;;;10.30;9.30;;;13.90;99.90;;;;;;5041724;28;20455;-68
2022/07/17 00:11:38;;;;;;;10.40;9.50;;;13.80;99.90;;;;;;5037981;28;20480;-68
2022/07/17 00:14:05;;;;;;;10.63;9.80;;;13.60;99.90;;;;;;5038239;28;20958;-68
2022/07/17 00:16:33;;;;;;;10.43;9.43;;;13.40;99.90;;;;;;5040445;28;20493;-68
2022/07/17 00:19:00;;;;;;;10.30;9.50;;;13.30;99.90;;;;;;5043427;28;20468;-68
2022/07/17 00:21:27;;;;;;;9.93;9.33;;;13.20;99.90;;;;;;5044813;28;20475;-68
2022/07/17 00:23:55;;;;;;;10.20;9.50;;;13.10;99.90;;;;;;5045481;28;20809;-68
2022/07/17 00:26:23;;;;;;;10.33;9.80;;;12.80;99.90;;;;;;5041252;28;20475;-68
2022/07/17 00:28:50;;;;;;;10.40;9.60;;;12.50;99.90;;;;;;5039477;28;20470;-67
2022/07/17 00:31:17;;;;;;;10.53;8.93;;;12.40;99.90;;;;;;5046795;28;20471;-68
2022/07/17 00:33:45;;;;;;;11.37;9.67;;;12.30;99.90;;;;;;5039451;28;20463;-68
2022/07/17 00:36:14;;;;;;;9.50;8.80;;;12.20;99.90;;;;;;5036029;28;20470;-68
2022/07/17 00:38:42;;;;;;;9.80;9.00;;;12.10;99.90;;;;;;5042882;28;20515;-68
2022/07/17 00:41:10;;;;;;;11.50;8.43;;;12.00;99.90;;;;;;5044853;28;21088;-67
2022/07/17 00:43:37;;;;;;;9.90;9.00;;;11.90;99.90;;;;;;5043579;28;20523;-68
2022/07/17 00:46:05;;;;;;;9.90;8.80;;;11.80;99.90;;;;;;5042764;28;20490;-68
2022/07/17 00:48:33;;;;;;;9.63;9.03;;;11.70;99.90;;;;;;5038292;28;20587;-67
2022/07/17 00:51:01;;;;;;;9.33;8.73;;;11.60;99.90;;;;;;5045506;28;20460;-67
2022/07/17 00:53:30;;;;;;;9.43;8.83;;;11.70;99.90;;;;;;5042930;28;20858;-67
2022/07/17 00:55:58;;;;;;;9.73;9.13;;;11.70;99.90;;;;;;5043252;28;20488;-67
2022/07/17 00:58:28;;;;;;;11.17;9.03;;;11.60;99.90;;;;;;5041773;28;20461;-68
2022/07/17 01:00:56;;;;;;;11.43;10.37;;;11.40;99.90;;;;;;5044172;28;20868;-68
2022/07/17 01:03:26;;;;;;;10.80;9.70;;;11.20;99.90;;;;;;5042153;28;20457;-68
2022/07/17 01:05:53;;;;;;;10.03;9.23;;;11.30;99.90;;;;;;5041076;28;20542;-68
2022/07/17 01:08:21;;;;;;;9.10;8.50;;;11.20;99.90;;;;;;5041614;28;20487;-68
2022/07/17 01:10:48;;;;;;;10.20;9.20;;;11.00;99.90;;;;;;5045701;28;20459;-67
2022/07/17 01:13:15;;;;;;;10.50;9.70;;;10.90;99.90;;;;;;5039353;28;20468;-68
2022/07/17 01:15:44;;;;;;;9.73;9.13;;;11.00;99.90;;;;;;5044748;28;20507;-68
2022/07/17 01:18:13;;;;;;;10.30;9.60;;;11.10;99.90;;;;;;5038305;28;20467;-67
2022/07/17 01:20:44;;;;;;;8.90;8.40;;;11.10;99.90;;;;;;5037056;28;20464;-68
2022/07/17 01:23:13;;;;;;;9.87;8.93;;;11.10;99.90;;;;;;5033976;28;20456;-68
2022/07/17 01:25:40;;;;;;;18.07;9.27;;;11.00;99.90;;;;;;5032948;28;20476;-67
2022/07/17 01:28:08;;;;;;;9.70;9.00;;;10.90;99.90;;;;;;5042663;28;20562;-67
2022/07/17 01:30:35;;;;;;;11.53;9.20;;;10.80;99.90;;;;;;5043512;28;20470;-67
2022/07/17 01:33:02;;;;;;;15.77;8.83;;;10.80;99.90;;;;;;5038690;28;20476;-67
2022/07/17 01:35:30;;;;;;;10.50;9.30;;;10.80;99.90;;;;;;5040153;28;20487;-68
2022/07/17 01:37:58;;;;;;;9.20;8.33;;;10.80;99.90;;;;;;5041415;28;20555;-68
2022/07/17 01:40:26;;;;;;;9.37;8.70;;;10.70;99.90;;;;;;5035599;28;20993;-68
2022/07/17 01:42:53;;;;;;;10.07;9.10;;;10.70;99.90;;;;;;5046775;28;20467;-68
2022/07/17 01:45:20;;;;;;;10.03;9.03;;;10.60;99.90;;;;;;5041328;28;20465;-67
2022/07/17 01:47:48;;;;;;;11.40;9.20;;;10.60;99.90;;;;;;5039357;28;20487;-67
2022/07/17 01:50:16;;;;;;;15.43;9.40;;;10.60;99.90;;;;;;5041672;28;20460;-67
2022/07/17 01:52:45;;;;;;;10.80;9.80;;;10.60;99.90;;;;;;5041573;28;20483;-68
2022/07/17 01:55:14;;;;;;;11.10;10.13;;;10.50;99.90;;;;;;5044203;28;20868;-67
2022/07/17 01:57:44;;;;;;;10.03;9.43;;;10.50;99.90;;;;;;5039527;28;20977;-67
2022/07/17 02:00:16;;;;;;;11.00;9.97;;;10.50;99.90;;;;;;5038617;28;20468;-67
2022/07/17 02:02:43;;;;;;;11.23;9.30;;;10.40;99.90;;;;;;5043123;28;20468;-68
2022/07/17 02:05:11;;;;;;;9.70;8.90;;;10.30;99.90;;;;;;5043716;28;20971;-69
2022/07/17 02:07:39;;;;;;;10.43;9.63;;;10.30;99.90;;;;;;5042224;28;20487;-67
2022/07/17 02:10:09;;;;;;;10.87;10.10;;;10.20;99.90;;;;;;5045579;28;20467;-68
2022/07/17 02:12:35;;;;;;;10.57;9.97;;;10.20;99.90;;;;;;5039740;28;20530;-68
2022/07/17 02:15:05;;;;;;;10.87;9.90;;;10.20;99.90;;;;;;5039149;28;20500;-68
2022/07/17 02:17:32;;;;;;;12.20;11.10;;;10.20;99.90;;;;;;5033942;28;20452;-68
2022/07/17 02:19:59;;;;;;;11.20;10.50;;;10.20;99.90;;;;;;5037965;28;20472;-68
2022/07/17 02:22:26;;;;;;;10.70;9.83;;;10.20;99.90;;;;;;5041446;28;20487;-68
2022/07/17 02:24:53;;;;;;;9.87;9.20;;;10.10;99.90;;;;;;5040185;28;20464;-67
2022/07/17 02:27:21;;;;;;;11.33;10.50;;;10.10;99.90;;;;;;5042337;28;20792;-68
2022/07/17 02:29:47;;;;;;;11.30;10.53;;;10.00;99.90;;;;;;5037646;28;20463;-68
2022/07/17 02:32:16;;;;;;;10.77;10.07;;;10.00;99.90;;;;;;5043853;28;20464;-68
2022/07/17 02:34:43;;;;;;;11.40;10.30;;;9.90;99.90;;;;;;5042964;28;20484;-68
2022/07/17 02:37:10;;;;;;;10.30;9.70;;;9.90;99.90;;;;;;5037586;28;20550;-68
2022/07/17 02:39:51;;;;;;;10.83;10.03;;;9.90;99.90;;;;;;5040441;28;20471;-68
2022/07/17 02:42:19;;;;;;;11.93;10.90;;;9.80;99.90;;;;;;5038917;28;20464;-68
2022/07/17 02:44:46;;;;;;;10.17;9.47;;;9.80;99.90;;;;;;5036296;28;20460;-68
2022/07/17 02:47:21;;;;;;;11.70;10.80;;;9.70;99.90;;;;;;5040906;28;20460;-68
2022/07/17 02:49:47;;;;;;;12.93;9.80;;;9.60;99.90;;;;;;5044532;28;20837;-68
2022/07/17 02:52:15;;;;;;;10.10;9.60;;;9.60;99.90;;;;;;5039830;28;20467;-68
2022/07/17 02:54:42;;;;;;;10.00;9.30;;;9.50;99.90;;;;;;5042844;28;20460;-68
2022/07/17 02:57:10;;;;;;;10.40;9.63;;;9.40;99.90;;;;;;5042379;28;20462;-68
2022/07/17 02:59:38;;;;;;;10.70;10.07;;;9.40;99.90;;;;;;5034653;28;20468;-68
2022/07/17 03:02:05;;;;;;;11.73;9.60;;;9.40;99.90;;;;;;5039766;28;20463;-68
2022/07/17 03:04:34;;;;;;;10.20;9.53;;;9.30;99.90;;;;;;5042739;28;20537;-68
2022/07/17 03:07:02;;;;;;;14.60;9.77;;;9.20;99.90;;;;;;5041326;28;20482;-68
2022/07/17 03:09:29;;;;;;;11.20;10.30;;;9.20;99.90;;;;;;5040156;28;20519;-68
2022/07/17 03:11:56;;;;;;;10.50;9.80;;;9.20;99.90;;;;;;5036723;28;20468;-68
2022/07/17 03:14:23;;;;;;;9.97;9.37;;;9.20;99.90;;;;;;5037620;28;20460;-68
2022/07/17 03:16:50;;;;;;;10.27;9.40;;;9.20;99.90;;;;;;5045007;28;20485;-68
2022/07/17 03:19:17;;;;;;;10.50;9.60;;;9.10;99.90;;;;;;5038319;28;20479;-68
2022/07/17 03:21:46;;;;;;;13.30;9.47;;;9.10;99.90;;;;;;5041348;28;20877;-68
2022/07/17 03:24:14;;;;;;;11.60;9.90;;;9.10;99.90;;;;;;5038700;28;21593;-68
2022/07/17 03:26:41;;;;;;;10.00;9.30;;;9.00;99.90;;;;;;5041022;28;20465;-69
2022/07/17 03:29:08;;;;;;;10.77;10.13;;;9.00;99.90;;;;;;5038996;28;20563;-68
2022/07/17 03:31:35;;;;;;;11.43;9.50;;;9.00;99.90;;;;;;5038634;28;20867;-68
2022/07/17 03:34:02;;;;;;;11.47;10.33;;;9.00;99.90;;;;;;5037733;28;20562;-67
2022/07/17 03:36:30;;;;;;;11.23;10.23;;;8.90;99.90;;;;;;5038477;28;20468;-68
2022/07/17 03:38:59;;;;;;;12.13;10.53;;;9.00;99.90;;;;;;5039879;28;20473;-68
2022/07/17 03:41:27;;;;;;;12.17;10.90;;;9.00;99.90;;;;;;5043147;28;20464;-68
2022/07/17 03:43:54;;;;;;;10.90;9.90;;;9.00;99.90;;;;;;5040604;28;20487;-68
2022/07/17 03:46:22;;;;;;;11.47;10.27;;;9.10;99.90;;;;;;5036373;28;21042;-67
2022/07/17 03:48:51;;;;;;;10.87;10.00;;;9.20;99.90;;;;;;5038234;28;20492;-68
2022/07/17 03:51:19;;;;;;;11.53;10.50;;;9.40;99.90;;;;;;5039884;28;20555;-68
2022/07/17 03:53:46;;;;;;;13.33;10.10;;;9.40;99.90;;;;;;5048232;28;20471;-68
2022/07/17 03:56:43;;;;;;;10.77;9.97;;;9.50;99.90;;;;;;5042956;28;20460;-69
2022/07/17 03:59:11;;;;;;;12.93;9.50;;;9.50;99.90;;;;;;5041239;28;20476;-68
2022/07/17 04:01:38;;;;;;;9.07;8.40;;;9.50;99.90;;;;;;5036350;28;20473;-68
2022/07/17 04:04:05;;;;;;;11.00;10.03;;;9.50;99.90;;;;;;5016663;28;20525;-67
2022/07/17 04:06:32;;;;;;;10.20;9.57;;;9.50;99.90;;;;;;5016165;28;20456;-68
2022/07/17 04:08:59;;;;;;;12.03;11.03;;;9.50;99.90;;;;;;5016256;28;20511;-69
2022/07/17 04:11:26;;;;;;;10.57;9.80;;;9.50;99.90;;;;;;5016103;28;20984;-68
2022/07/17 04:13:53;;;;;;;11.03;10.23;;;9.50;99.90;;;;;;5016698;28;20468;-68
2022/07/17 04:16:21;;;;;;;12.10;11.10;;;9.50;99.90;;;;;;5016561;28;21085;-68
2022/07/17 04:18:48;;;;;;;11.63;10.53;;;9.60;99.90;;;;;;5016816;28;20910;-68
2022/07/17 04:21:15;;;;;;;10.90;10.00;;;9.60;99.90;;;;;;5017255;28;21170;-68
2022/07/17 04:23:42;;;;;;;12.07;11.17;;;9.70;99.90;;;;;;5017974;28;20984;-67
2022/07/17 04:26:09;;;;;;;10.97;10.00;;;9.70;99.90;;;;;;5017809;28;20881;-68
2022/07/17 04:28:36;;;;;;;10.70;9.80;;;9.60;99.90;;;;;;5018052;28;20502;-68
2022/07/17 04:31:03;;;;;;;10.93;10.23;;;9.50;99.90;;;;;;5018477;28;20530;-68
2022/07/17 04:33:31;;;;;;;11.27;10.57;;;9.30;99.90;;;;;;5015156;28;20464;-69
2022/07/17 04:35:58;;;;;;;10.80;9.70;;;9.20;99.90;;;;;;5017302;28;20499;-69
2022/07/17 04:38:25;;;;;;;10.90;9.93;;;9.30;99.90;;;;;;5019132;28;20551;-68
2022/07/17 04:40:52;;;;;;;14.43;9.40;;;9.30;99.90;;;;;;5016978;28;20469;-68
2022/07/17 04:43:19;;;;;;;10.00;9.30;;;9.40;99.90;;;;;;5018502;28;20491;-68
2022/07/17 04:45:46;;;;;;;10.53;9.60;;;9.40;99.90;;;;;;5019423;28;20507;-68
2022/07/17 04:48:13;;;;;;;10.70;10.10;;;9.50;99.90;;;;;;5017521;28;21128;-68
2022/07/17 04:50:41;;;;;;;12.93;11.70;;;9.60;99.90;;;;;;5014818;28;20506;-69
2022/07/17 04:53:09;;;;;;;12.13;11.00;;;9.70;99.90;;;;;;5017423;28;20460;-68
2022/07/17 04:55:36;;;;;;;12.00;10.87;;;9.90;99.90;;;;;;5016644;28;20504;-67
2022/07/17 04:58:03;;;;;;;19.00;11.67;;;10.10;99.90;;;;;;5017850;28;20680;-68
2022/07/17 05:00:30;;;;;;;11.87;10.90;;;10.30;99.90;;;;;;5016910;28;21060;-69
2022/07/17 05:02:57;;;;;;;11.03;10.03;;;10.40;99.90;;;;;;5015472;28;20466;-67
2022/07/17 05:05:24;;;;;;;11.83;9.70;;;10.60;99.90;;;;;;5017296;28;21157;-68
2022/07/17 05:07:53;;;;;;;11.00;10.00;;;10.80;99.90;;;;;;5016891;28;20455;-68
2022/07/17 05:10:19;;;;;;;11.67;10.60;;;10.80;99.90;;;;;;5017064;28;21030;-68
2022/07/17 05:12:47;;;;;;;11.30;10.20;;;10.90;99.90;;;;;;5018455;28;20723;-68
2022/07/17 05:15:14;;;;;;;14.10;10.57;;;11.00;99.90;;;;;;5017464;28;20492;-69
2022/07/17 05:17:41;;;;;;;22.20;10.90;;;11.20;99.90;;;;;;5016056;28;20555;-70
2022/07/17 05:20:08;;;;;;;12.03;10.80;;;11.30;99.90;;;;;;5015214;28;20469;-68
2022/07/17 05:22:35;;;;;;;11.20;10.27;;;11.30;99.90;;;;;;5018500;28;20803;-68
2022/07/17 05:25:04;;;;;;;11.97;10.43;;;11.40;99.90;;;;;;5017482;28;20626;-68
2022/07/17 05:27:31;;;;;;;11.80;10.50;;;11.50;99.90;;;;;;5017600;28;20498;-68
2022/07/17 05:29:58;;;;;;;11.37;10.20;;;11.60;99.90;;;;;;5017162;28;21623;-69
2022/07/17 05:32:25;;;;;;;12.13;11.20;;;11.70;99.90;;;;;;5017325;28;20559;-68
2022/07/17 05:34:52;;;;;;;12.23;10.90;;;11.80;99.90;;;;;;5015582;28;20665;-67
2022/07/17 05:37:18;;;;;;;20.27;11.10;;;11.90;99.90;;;;;;5032187;28;20487;-68
2022/07/17 05:39:46;;;;;;;11.40;10.23;;;12.00;99.90;;;;;;5039368;28;20464;-68
2022/07/17 05:42:14;;;;;;;12.30;11.10;;;12.20;99.90;;;;;;5042452;28;20890;-67
2022/07/17 05:44:40;;;;;;;16.17;10.53;;;12.30;99.90;;;;;;5035968;28;20981;-67
2022/07/17 05:47:07;;;;;;;12.77;11.47;;;12.40;99.90;;;;;;5026065;28;20951;-68
2022/07/17 05:49:34;;;;;;;16.00;11.73;;;12.50;99.90;;;;;;5015084;28;20496;-67
2022/07/17 05:52:01;;;;;;;12.00;11.00;;;12.60;99.90;;;;;;5016928;28;20958;-67
2022/07/17 05:54:28;;;;;;;11.80;10.63;;;12.80;99.90;;;;;;5017146;28;20465;-67
2022/07/17 05:56:54;;;;;;;12.17;10.87;;;12.90;99.90;;;;;;5013898;28;21014;-67
2022/07/17 05:59:23;;;;;;;12.73;11.60;;;13.00;99.90;;;;;;5014464;28;20459;-69
2022/07/17 06:01:50;;;;;;;12.10;10.53;;;13.20;99.90;;;;;;5011849;28;20487;-68
2022/07/17 06:04:17;;;;;;;10.83;9.93;;;13.30;99.90;;;;;;5013789;28;21092;-67
2022/07/17 06:06:44;;;;;;;12.20;11.10;;;13.50;99.90;;;;;;5013595;28;20789;-67
2022/07/17 06:09:11;;;;;;;11.10;10.00;;;13.70;99.90;;;;;;5012862;28;22479;-68
2022/07/17 06:11:38;;;;;;;11.40;10.60;;;13.90;99.90;;;;;;5013292;28;20472;-68
2022/07/17 06:14:05;;;;;;;11.40;10.50;;;14.10;99.90;;;;;;5013274;28;21015;-69
2022/07/17 06:16:33;;;;;;;11.77;10.57;;;14.30;99.90;;;;;;5015597;28;20869;-68
2022/07/17 06:19:00;;;;;;;11.20;10.30;;;14.50;99.90;;;;;;5013169;28;20973;-68
2022/07/17 06:21:27;;;;;;;11.70;10.43;;;14.60;99.90;;;;;;5013911;28;20475;-68
2022/07/17 06:23:53;;;;;;;12.57;11.23;;;14.80;99.90;;;;;;5014949;28;20805;-69
2022/07/17 06:26:20;;;;;;;10.43;9.63;;;15.10;99.90;;;;;;5015436;28;20464;-67
2022/07/17 06:28:47;;;;;;;14.77;11.33;;;15.20;99.90;;;;;;5014752;28;20495;-67
2022/07/17 06:31:14;;;;;;;16.80;12.10;;;15.30;99.90;;;;;;5013639;28;20979;-68
2022/07/17 06:33:43;;;;;;;13.57;12.27;;;15.50;99.90;;;;;;5015061;28;20964;-68
2022/07/17 06:36:10;;;;;;;20.33;11.93;;;15.70;99.90;;;;;;5013210;28;20476;-68
2022/07/17 06:38:37;;;;;;;12.50;11.60;;;15.90;99.90;;;;;;5014754;28;20475;-68
2022/07/17 06:41:03;;;;;;;14.63;12.67;;;16.00;99.90;;;;;;5015134;28;20485;-68
2022/07/17 06:43:30;;;;;;;13.90;12.43;;;16.20;99.90;;;;;;5014245;28;20463;-68
2022/07/17 06:46:12;;;;;;;13.97;11.27;;;16.30;99.90;;;;;;5013319;28;20835;-69
2022/07/17 06:48:39;;;;;;;15.80;12.33;;;16.50;99.90;;;;;;5013323;28;20849;-68
2022/07/17 06:51:07;;;;;;;18.63;13.67;;;16.60;99.90;;;;;;5013788;28;21324;-67
2022/07/17 06:53:34;;;;;;;20.90;12.40;;;16.80;99.90;;;;;;5013999;28;20700;-68
2022/07/17 06:56:01;;;;;;;14.50;12.90;;;16.90;99.90;;;;;;5013061;28;20552;-68
2022/07/17 06:58:28;;;;;;;13.40;12.23;;;17.00;99.90;;;;;;5013045;28;20953;-69
2022/07/17 07:00:55;;;;;;;26.07;13.23;;;17.00;99.90;;;;;;5012700;28;20488;-69
2022/07/17 07:03:22;;;;;;;16.13;12.90;;;17.00;99.90;;;;;;5012756;28;22363;-68
2022/07/17 07:05:50;;;;;;;12.63;11.10;;;17.20;99.90;;;;;;5011262;28;20462;-68
2022/07/17 07:08:18;;;;;;;18.97;12.13;;;17.40;99.90;;;;;;5012941;28;20568;-68
2022/07/17 07:10:45;;;;;;;15.20;11.93;;;17.60;99.90;;;;;;5035356;28;21005;-68
2022/07/17 07:13:13;;;;;;;13.50;12.00;;;17.70;99.90;;;;;;5035977;28;21032;-68
2022/07/17 07:15:40;;;;;;;14.93;12.23;;;17.60;99.90;;;;;;5036970;28;20521;-68
2022/07/17 07:18:07;;;;;;;21.63;13.23;;;17.70;99.90;;;;;;5032902;28;20466;-68
2022/07/17 07:20:33;;;;;;;15.37;13.20;;;17.90;99.90;;;;;;5012684;28;20471;-68
2022/07/17 07:23:00;;;;;;;16.10;12.83;;;18.10;99.90;;;;;;5011149;28;20463;-69
2022/07/17 07:25:28;;;;;;;18.23;12.70;;;18.30;99.90;;;;;;5013943;28;20463;-69
2022/07/17 07:27:55;;;;;;;13.97;12.57;;;18.40;99.90;;;;;;5012730;28;20843;-68
2022/07/17 07:30:22;;;;;;;24.67;13.73;;;18.50;99.90;;;;;;5011915;28;20488;-69
2022/07/17 07:32:49;;;;;;;24.83;12.47;;;18.60;99.90;;;;;;5013104;28;20777;-68
2022/07/17 07:35:16;;;;;;;24.10;13.03;;;18.80;99.90;;;;;;5019399;28;20472;-68
2022/07/17 07:37:43;;;;;;;18.17;13.73;;;18.90;99.90;;;;;;5036308;28;20456;-68
2022/07/17 07:40:12;;;;;;;25.07;13.47;;;18.80;99.90;;;;;;5015612;28;20979;-68
2022/07/17 07:42:55;;;;;;;14.07;12.70;;;19.00;99.90;;;;;;5014263;28;20465;-68
2022/07/17 07:45:22;;;;;;;20.00;12.73;;;19.00;99.90;;;;;;5012263;28;21494;-68
2022/07/17 07:47:51;;;;;;;28.63;13.33;;;19.30;99.90;;;;;;5014005;28;20464;-69
2022/07/17 07:50:18;;;;;;;15.53;12.40;;;19.40;99.90;;;;;;5014476;28;21175;-69
2022/07/17 07:52:46;;;;;;;13.20;12.20;;;19.50;99.90;;;;;;5012839;28;20457;-68
2022/07/17 07:55:13;;;;;;;28.23;12.17;;;19.70;99.90;;;;;;5013973;28;20494;-69
2022/07/17 07:57:41;;;;;;;27.20;12.80;;;19.70;99.90;;;;;;5014431;28;20457;-68
2022/07/17 08:00:10;;;;;;;20.10;13.10;;;19.80;99.90;;;;;;5012202;28;20804;-68
2022/07/17 08:02:38;;;;;;;14.87;11.67;;;19.90;99.90;;;;;;5012592;28;20468;-69
2022/07/17 08:05:05;;;;;;;16.20;12.20;;;20.20;99.90;;;;;;5014102;28;20492;-68
2022/07/17 08:07:32;;;;;;;18.40;12.43;;;20.10;99.90;;;;;;5012505;28;21378;-69
2022/07/17 08:10:00;;;;;;;15.03;12.43;;;20.10;99.90;;;;;;5013679;28;20609;-69
2022/07/17 08:12:27;;;;;;;14.03;12.40;;;20.10;99.90;;;;;;5011952;28;20474;-69
2022/07/17 08:14:58;;;;;;;16.53;12.40;;;20.30;99.90;;;;;;5013637;28;21059;-69
2022/07/17 08:17:25;;;;;;;13.60;11.27;;;20.60;99.90;;;;;;5012830;28;20464;-69
2022/07/17 08:19:52;;;;;;;17.37;13.63;;;20.90;99.90;;;;;;5013056;28;22843;-69
2022/07/17 08:22:19;;;;;;;13.60;12.60;;;21.50;99.90;;;;;;5014905;28;20464;-69
2022/07/17 08:24:46;;;;;;;13.40;12.50;;;22.10;99.90;;;;;;5013620;28;20467;-69
2022/07/17 08:27:13;;;;;;;13.30;12.30;;;22.80;98.20;;;;;;5012322;28;22511;-69
2022/07/17 08:29:41;;;;;;;13.07;11.90;;;23.80;96.70;;;;;;5013522;28;20488;-69
2022/07/17 08:32:09;;;;;;;12.20;11.30;;;24.30;92.80;;;;;;5014147;28;20876;-69
2022/07/17 08:34:36;;;;;;;14.40;12.90;;;24.50;92.30;;;;;;5014646;28;20492;-69
2022/07/17 08:37:03;;;;;;;14.10;12.60;;;25.20;91.40;;;;;;5015281;28;20472;-67
2022/07/17 08:39:30;;;;;;;13.47;12.50;;;25.70;89.70;;;;;;5016804;28;20453;-69
2022/07/17 08:41:57;;;;;;;13.00;12.30;;;26.60;82.00;;;;;;5017121;28;20475;-69
2022/07/17 08:44:24;;;;;;;14.80;13.50;;;27.10;76.70;;;;;;5017306;28;21059;-69
2022/07/17 08:46:52;;;;;;;14.57;13.27;;;26.90;71.30;;;;;;5017027;28;20461;-69
2022/07/17 08:49:22;;;;;;;14.23;13.10;;;27.50;68.80;;;;;;5016333;28;20495;-68
2022/07/17 08:51:50;;;;;;;13.27;12.57;;;27.80;66.10;;;;;;5016392;28;20467;-70
2022/07/17 08:54:17;;;;;;;14.57;13.17;;;28.10;63.40;;;;;;5015959;28;20599;-69
2022/07/17 08:56:44;;;;;;;14.23;12.93;;;28.20;62.40;;;;;;5017713;28;20464;-68
2022/07/17 08:59:11;;;;;;;14.10;12.80;;;28.30;62.10;;;;;;5016332;28;20449;-69
2022/07/17 09:01:38;;;;;;;13.90;12.93;;;28.40;61.60;;;;;;5015777;28;20802;-69
2022/07/17 09:04:06;;;;;;;14.20;13.17;;;28.60;59.90;;;;;;5015261;28;20468;-70
2022/07/17 09:06:35;;;;;;;14.60;13.40;;;28.70;58.00;;;;;;5015562;28;21089;-69
2022/07/17 09:11:47;;;;;;;14.13;12.77;;;28.50;56.70;;;;;;5016426;28;20468;-69
2022/07/17 09:14:14;;;;;;;14.00;13.17;;;28.70;56.30;;;;;;5017171;28;20731;-70
2022/07/17 09:16:53;;;;;;;14.17;13.27;;;29.60;56.00;;;;;;5016718;28;20492;-69
2022/07/17 09:19:27;;;;;;;13.83;12.93;;;29.50;54.60;;;;;;5017529;28;20464;-69
2022/07/17 09:22:06;;;;;;;13.90;13.10;;;29.60;53.50;;;;;;5016554;28;20475;-68
2022/07/17 09:24:45;;;;;;;14.37;13.37;;;29.70;52.50;;;;;;5016871;28;20939;-70
2022/07/17 09:27:17;;;;;;;14.20;13.27;;;30.20;52.00;;;;;;5016757;28;20467;-69
2022/07/17 09:29:55;;;;;;;14.13;13.13;;;30.00;51.60;;;;;;5015607;28;20762;-70
2022/07/17 09:32:24;;;;;;;14.93;13.37;;;29.80;50.60;;;;;;5015437;28;20470;-69
2022/07/17 09:34:52;;;;;;;14.20;13.20;;;29.90;50.40;;;;;;5016579;28;20606;-69
2022/07/17 09:37:23;;;;;;;14.80;13.77;;;29.60;49.90;;;;;;5016250;28;20468;-69
2022/07/17 09:39:51;;;;;;;14.23;13.17;;;30.30;49.60;;;;;;5015732;28;20559;-70
2022/07/17 09:42:26;;;;;;;14.60;13.40;;;30.80;48.70;;;;;;5015054;28;20820;-69
2022/07/17 09:45:01;;;;;;;14.97;13.87;;;30.80;45.10;;;;;;5015988;28;20495;-69
2022/07/17 09:47:30;;;;;;;13.43;12.63;;;30.80;44.70;;;;;;5016015;28;21399;-69
2022/07/17 09:49:58;;;;;;;13.60;12.53;;;29.40;45.30;;;;;;5015986;28;20503;-70
2022/07/17 09:52:29;;;;;;;14.47;13.17;;;29.80;46.40;;;;;;5007999;28;20954;-70
2022/07/17 09:54:57;;;;;;;14.10;13.20;;;30.60;45.30;;;;;;5009492;28;21512;-70
2022/07/17 09:57:26;;;;;;;14.50;13.20;;;30.40;46.50;;;;;;5008846;28;20464;-68
2022/07/17 09:59:55;;;;;;;12.80;12.10;;;30.30;46.00;;;;;;5010793;28;20472;-69
2022/07/17 10:02:23;;;;;;;14.20;13.20;;;30.10;46.80;;;;;;5007526;28;20483;-69
2022/07/17 10:04:50;;;;;;;13.53;12.73;;;30.30;45.10;;;;;;5012005;28;20488;-70
2022/07/17 10:07:17;;;;;;;13.80;12.90;;;30.10;45.80;;;;;;5011092;28;20470;-70
2022/07/17 10:09:46;;;;;;;13.90;12.90;;;30.50;44.80;;;;;;5006162;28;20935;-70
2022/07/17 10:12:14;;;;;;;13.73;12.77;;;31.10;43.60;;;;;;5007973;28;20570;-69
2022/07/17 10:14:42;;;;;;;13.73;12.93;;;31.10;42.50;;;;;;5008806;28;20471;-69
2022/07/17 10:17:11;;;;;;;14.97;13.87;;;31.40;42.10;;;;;;5008104;28;21210;-70
2022/07/17 10:19:47;;;;;;;13.80;12.70;;;32.00;41.10;;;;;;5008080;28;20483;-69
2022/07/17 10:22:14;;;;;;;14.57;13.50;;;31.80;40.50;;;;;;5007589;28;20471;-70
2022/07/17 10:24:50;;;;;;;14.23;13.33;;;32.00;40.50;;;;;;5008569;28;20477;-69
2022/07/17 10:27:22;;;;;;;13.80;13.03;;;31.50;40.50;;;;;;5007861;28;20529;-70
2022/07/17 10:30:00;;;;;;;13.73;12.70;;;31.90;41.60;;;;;;5007976;28;20469;-70
2022/07/17 10:32:27;;;;;;;13.83;12.80;;;31.70;40.30;;;;;;5007713;28;20471;-70
2022/07/17 10:35:00;;;;;;;14.00;12.90;;;31.90;39.60;;;;;;5006935;28;20882;-70
2022/07/17 10:37:28;;;;;;;13.43;12.57;;;32.30;39.40;;;;;;5007465;28;21013;-70
2022/07/17 10:39:59;;;;;;;13.93;12.93;;;32.50;38.10;;;;;;5008512;28;20492;-70
2022/07/17 10:42:54;;;;;;;13.53;12.57;;;33.20;38.10;;;;;;5008801;28;20954;-70
2022/07/17 10:45:23;;;;;;;13.30;12.30;;;33.80;37.00;;;;;;5007706;28;20685;-69
2022/07/17 10:47:53;;;;;;;13.43;12.73;;;34.20;37.00;;;;;;5009240;28;20461;-69
2022/07/17 10:50:23;;;;;;;13.40;12.50;;;33.20;38.10;;;;;;5005912;28;20523;-69
2022/07/17 10:53:23;;;;;;;13.27;12.30;;;33.10;38.30;;;;;;5006738;28;20468;-69
2022/07/17 10:55:54;;;;;;;13.33;12.50;;;33.10;37.70;;;;;;5008043;28;20529;-70
2022/07/17 10:58:24;;;;;;;13.63;12.67;;;32.30;37.30;;;;;;5008230;28;20449;-70
2022/07/17 11:01:03;;;;;;;12.77;11.90;;;31.70;36.80;;;;;;5006650;28;20471;-70
2022/07/17 11:03:31;;;;;;;13.83;13.13;;;32.20;36.60;;;;;;5009013;28;20467;-70
2022/07/17 11:06:09;;;;;;;13.60;12.80;;;32.80;34.80;;;;;;5014545;28;20467;-70
2022/07/17 11:08:37;;;;;;;14.17;12.90;;;32.70;35.70;;;;;;5023975;28;20463;-70
2022/07/17 11:11:06;;;;;;;14.10;13.07;;;32.70;36.00;;;;;;5010750;28;21346;-71
2022/07/17 11:13:32;;;;;;;14.67;13.30;;;33.20;36.60;;;;;;5007722;28;20580;-70
2022/07/17 11:15:59;;;;;;;14.60;13.70;;;33.50;35.20;;;;;;5009094;28;21236;-70
2022/07/17 11:18:27;;;;;;;14.10;12.67;;;33.50;35.20;;;;;;5007499;28;20460;-68
2022/07/17 11:20:56;;;;;;;13.77;12.63;;;34.00;34.50;;;;;;5005839;28;20986;-67
2022/07/17 11:23:26;;;;;;;12.50;11.80;;;33.10;35.40;;;;;;5003920;28;20469;-68
2022/07/17 11:25:54;;;;;;;12.63;12.03;;;33.30;35.20;;;;;;5006835;28;20471;-68
2022/07/17 11:28:38;;;;;;;13.57;12.87;;;34.00;35.60;;;;;;5008211;28;20471;-68
2022/07/17 11:31:17;;;;;;;13.17;12.57;;;34.20;35.60;;;;;;5007730;28;20484;-70
2022/07/17 11:33:50;;;;;;;13.67;12.87;;;34.20;35.20;;;;;;5007434;28;20936;-70
2022/07/17 11:36:22;;;;;;;14.63;13.63;;;34.70;34.70;;;;;;5007744;28;20829;-70
2022/07/17 11:38:49;;;;;;;13.50;12.70;;;35.00;33.80;;;;;;5007391;28;21135;-70
2022/07/17 11:41:17;;;;;;;13.73;13.03;;;33.50;33.50;;;;;;5007007;28;20464;-70
2022/07/17 11:43:46;;;;;;;13.87;12.73;;;33.20;34.60;;;;;;5005839;28;21142;-70
2022/07/17 11:46:13;;;;;;;13.43;12.53;;;33.20;34.20;;;;;;5005797;28;20768;-70
2022/07/17 11:48:42;;;;;;;13.10;12.40;;;33.20;34.10;;;;;;5005852;28;20498;-70
2022/07/17 11:51:09;;;;;;;13.50;12.70;;;33.80;33.50;;;;;;5004136;28;20492;-70
2022/07/17 11:53:37;;;;;;;13.83;12.97;;;33.30;31.80;;;;;;5005574;28;22433;-70
2022/07/17 11:56:05;;;;;;;13.23;12.33;;;33.80;32.80;;;;;;5023244;28;20472;-70
2022/07/17 11:58:43;;;;;;;13.63;12.63;;;33.80;33.60;;;;;;5024425;28;20463;-70
2022/07/17 12:01:11;;;;;;;13.40;12.57;;;32.80;33.90;;;;;;5005578;28;20777;-70
2022/07/17 12:03:38;;;;;;;13.83;12.60;;;32.50;34.50;;;;;;5006413;28;20472;-70
2022/07/17 12:06:06;;;;;;;13.30;12.37;;;34.10;33.50;;;;;;5006588;28;21044;-70
2022/07/17 12:08:33;;;;;;;13.00;12.30;;;34.90;32.40;;;;;;5005902;28;20490;-70
2022/07/17 12:11:02;;;;;;;13.40;12.27;;;35.40;32.40;;;;;;5008009;28;20499;-70
2022/07/17 12:13:43;;;;;;;12.87;12.17;;;35.10;32.90;;;;;;5011864;28;20877;-70
2022/07/17 12:16:25;;;;;;;12.97;12.07;;;34.80;32.80;;;;;;5011388;28;20582;-70
2022/07/17 12:19:09;;;;;;;12.90;12.20;;;35.20;32.90;;;;;;5011880;28;20479;-70
2022/07/17 12:21:54;;;;;;;13.50;12.50;;;36.00;31.90;;;;;;5012417;28;20885;-70
2022/07/17 12:24:25;;;;;;;13.70;12.60;;;36.70;30.80;;;;;;5012278;28;20499;-71
2022/07/17 12:26:52;;;;;;;12.93;11.90;;;36.30;29.60;;;;;;5010925;28;20467;-70
2022/07/17 12:29:19;;;;;;;13.20;12.40;;;35.70;30.30;;;;;;5011393;28;20466;-70
2022/07/17 12:31:48;;;;;;;13.00;12.30;;;35.20;31.70;;;;;;5012005;28;20498;-71
2022/07/17 12:34:15;;;;;;;13.40;12.60;;;34.70;31.20;;;;;;5011498;28;21249;-70
2022/07/17 12:36:42;;;;;;;12.73;12.03;;;35.60;30.70;;;;;;5011423;28;20456;-70
2022/07/17 12:39:09;;;;;;;12.83;12.13;;;36.20;30.40;;;;;;5011709;28;20463;-70
2022/07/17 12:41:36;;;;;;;14.10;12.80;;;35.80;30.00;;;;;;5011316;28;20471;-70
2022/07/17 12:44:02;;;;;;;13.80;12.70;;;36.30;31.20;;;;;;5011836;28;20459;-70